createdAt,value
2018-05-09T00:01:12.914Z,6.77
2018-05-09T00:03:39.106Z,5.60
2018-05-09T00:06:05.283Z,5.97
2018-05-09T00:08:31.509Z,4.80
2018-05-09T00:10:57.666Z,7.70
2018-05-09T00:13:23.862Z,5.53
2018-05-09T00:15:50.034Z,5.00
2018-05-09T00:18:16.204Z,4.97
2018-05-09T00:20:42.363Z,5.47
2018-05-09T00:23:08.514Z,5.27
2018-05-09T00:25:34.746Z,5.93
2018-05-09T00:28:01.696Z,5.10
2018-05-09T00:30:27.852Z,5.90
2018-05-09T00:32:53.992Z,5.33
2018-05-09T00:35:20.197Z,6.23
2018-05-09T00:37:46.340Z,6.97
2018-05-09T00:40:12.508Z,7.23
2018-05-09T00:42:38.658Z,6.70
2018-05-09T00:45:04.836Z,5.90
2018-05-09T00:47:31.038Z,5.50
2018-05-09T00:49:57.203Z,5.80
2018-05-09T00:52:23.366Z,6.07
2018-05-09T00:54:49.515Z,7.70
2018-05-09T00:57:15.654Z,6.03
2018-05-09T00:59:41.802Z,7.27
2018-05-09T01:02:07.944Z,6.93
2018-05-09T01:04:34.096Z,6.87
2018-05-09T01:07:00.266Z,8.13
2018-05-09T01:09:26.455Z,6.97
2018-05-09T01:11:53.429Z,6.20
2018-05-09T01:14:20.335Z,5.60
2018-05-09T01:16:46.522Z,5.73
2018-05-09T01:19:12.683Z,6.83
2018-05-09T01:21:38.872Z,7.73
2018-05-09T01:24:05.824Z,6.83
2018-05-09T01:26:31.994Z,7.53
2018-05-09T01:28:58.183Z,5.97
2018-05-09T01:31:25.111Z,6.13
2018-05-09T01:33:51.307Z,6.17
2018-05-09T01:36:17.463Z,6.67
2018-05-09T01:38:43.615Z,8.57
2018-05-09T01:41:09.800Z,8.10
2018-05-09T01:43:35.950Z,8.60
2018-05-09T01:46:02.119Z,9.67
2018-05-09T01:48:28.270Z,8.53
2018-05-09T01:50:54.413Z,8.30
2018-05-09T01:53:20.594Z,6.80
2018-05-09T01:55:46.787Z,9.40
2018-05-09T01:58:12.955Z,15.07
2018-05-09T02:00:39.139Z,7.80
2018-05-09T02:03:06.049Z,8.33
2018-05-09T02:05:33.701Z,7.53
2018-05-09T02:07:59.860Z,7.83
2018-05-09T02:10:27.484Z,6.93
2018-05-09T02:12:53.646Z,7.20
2018-05-09T02:15:21.325Z,8.40
2018-05-09T02:17:47.498Z,8.50
2018-05-09T02:20:13.664Z,6.50
2018-05-09T02:22:39.839Z,6.60
2018-05-09T02:25:06.742Z,6.83
2018-05-09T02:27:32.903Z,8.13
2018-05-09T02:29:59.061Z,6.60
2018-05-09T02:32:25.248Z,8.80
2018-05-09T02:34:51.389Z,6.70
2018-05-09T02:37:17.556Z,6.00
2018-05-09T02:39:43.720Z,6.37
2018-05-09T02:42:09.900Z,7.80
2018-05-09T02:44:36.068Z,6.40
2018-05-09T02:47:02.235Z,6.80
2018-05-09T02:49:28.407Z,6.80
2018-05-09T02:51:54.554Z,6.87
2018-05-09T02:54:20.747Z,6.70
2018-05-09T02:56:46.921Z,6.83
2018-05-09T02:59:13.096Z,6.60
2018-05-09T03:01:39.254Z,6.93
2018-05-09T03:04:05.413Z,6.80
2018-05-09T03:06:31.608Z,6.60
2018-05-09T03:08:59.255Z,7.10
2018-05-09T03:11:25.404Z,6.83
2018-05-09T03:13:51.590Z,6.33
2018-05-09T03:16:17.740Z,7.43
2018-05-09T03:18:43.952Z,6.70
2018-05-09T03:21:10.066Z,7.03
2018-05-09T03:23:36.993Z,8.13
2018-05-09T03:26:03.159Z,7.87
2018-05-09T03:28:29.315Z,6.70
2018-05-09T03:30:55.465Z,8.50
2018-05-09T03:33:21.629Z,9.33
2018-05-09T03:35:47.757Z,7.23
2018-05-09T03:38:13.907Z,6.70
2018-05-09T03:40:40.832Z,6.57
2018-05-09T03:43:06.970Z,6.70
2018-05-09T03:45:33.123Z,6.13
2018-05-09T03:47:59.336Z,5.83
2018-05-09T03:50:25.508Z,5.87
2018-05-09T03:52:51.641Z,7.80
2018-05-09T03:55:18.534Z,5.77
2018-05-09T03:57:44.723Z,5.83
2018-05-09T04:00:10.870Z,10.37
2018-05-09T04:02:55.581Z,6.57
2018-05-09T04:05:40.116Z,6.97
2018-05-09T04:08:25.719Z,7.50
2018-05-09T04:10:51.831Z,6.53
2018-05-09T04:13:18.062Z,6.03
2018-05-09T04:15:44.147Z,6.57
2018-05-09T04:18:11.168Z,7.27
2018-05-09T04:20:37.406Z,5.70
2018-05-09T04:23:03.467Z,6.30
2018-05-09T04:25:29.611Z,5.70
2018-05-09T04:27:55.767Z,7.33
2018-05-09T04:30:21.912Z,6.50
2018-05-09T04:32:48.812Z,8.00
2018-05-09T04:35:14.973Z,6.83
2018-05-09T04:37:41.131Z,10.53
2018-05-09T04:40:07.306Z,8.10
2018-05-09T04:42:33.462Z,9.60
2018-05-09T04:44:59.610Z,10.43
2018-05-09T04:47:25.808Z,7.73
2018-05-09T04:49:52.013Z,7.67
2018-05-09T04:52:18.169Z,7.40
2018-05-09T04:54:44.309Z,7.50
2018-05-09T04:57:10.454Z,11.50
2018-05-09T04:59:36.621Z,11.67
2018-05-09T05:02:02.775Z,6.90
2018-05-09T05:04:28.915Z,8.27
2018-05-09T05:06:55.137Z,8.27
2018-05-09T05:09:21.260Z,9.40
2018-05-09T05:11:47.446Z,10.17
2018-05-09T05:14:13.578Z,9.20
2018-05-09T05:16:39.714Z,12.50
2018-05-09T05:19:05.877Z,11.17
2018-05-09T05:21:32.013Z,8.57
2018-05-09T05:23:58.947Z,11.20
2018-05-09T05:26:25.104Z,8.63
2018-05-09T05:28:51.963Z,13.70
2018-05-09T05:31:18.102Z,12.83
2018-05-09T05:33:44.280Z,11.63
2018-05-09T05:36:10.400Z,14.50
2018-05-09T05:38:36.552Z,13.20
2018-05-09T05:41:02.708Z,16.17
2018-05-09T05:43:28.858Z,20.40
2018-05-09T05:45:55.034Z,12.37
2018-05-09T05:48:21.210Z,14.40
2018-05-09T05:50:47.365Z,10.37
2018-05-09T05:53:13.519Z,13.77
2018-05-09T05:55:39.689Z,9.90
2018-05-09T05:58:05.883Z,9.97
2018-05-09T06:00:32.050Z,10.77
2018-05-09T06:02:58.190Z,11.90
2018-05-09T06:05:24.357Z,13.90
2018-05-09T06:07:50.490Z,13.87
2018-05-09T06:10:16.653Z,10.47
2018-05-09T06:12:42.877Z,11.90
2018-05-09T06:15:09.033Z,18.23
2018-05-09T06:17:35.198Z,17.63
2018-05-09T06:20:01.333Z,15.43
2018-05-09T06:22:28.223Z,14.93
2018-05-09T06:24:54.362Z,12.57
2018-05-09T06:27:20.486Z,10.90
2018-05-09T06:29:46.615Z,11.37
2018-05-09T06:32:12.768Z,11.00
2018-05-09T06:34:38.914Z,10.97
2018-05-09T06:37:05.073Z,10.87
2018-05-09T06:39:31.239Z,11.33
2018-05-09T06:41:57.429Z,25.23
2018-05-09T06:44:23.558Z,15.20
2018-05-09T06:46:49.697Z,21.53
2018-05-09T06:49:15.843Z,12.37
2018-05-09T06:51:41.984Z,14.23
2018-05-09T06:54:08.131Z,11.47
2018-05-09T06:56:34.296Z,12.13
2018-05-09T06:59:00.470Z,11.77
2018-05-09T07:01:26.604Z,10.43
2018-05-09T07:03:52.738Z,10.70
2018-05-09T07:06:18.924Z,11.57
2018-05-09T07:08:45.034Z,10.43
2018-05-09T07:11:11.182Z,11.73
2018-05-09T07:13:37.328Z,11.43
2018-05-09T07:16:03.465Z,12.87
2018-05-09T07:18:30.362Z,10.63
2018-05-09T07:20:56.535Z,10.60
2018-05-09T07:23:22.684Z,10.40
2018-05-09T07:25:48.827Z,11.80
2018-05-09T07:28:14.967Z,11.80
2018-05-09T07:30:41.108Z,10.20
2018-05-09T07:33:07.252Z,10.80
2018-05-09T07:35:33.443Z,11.30
2018-05-09T07:37:59.561Z,10.13
2018-05-09T07:40:25.755Z,10.03
2018-05-09T07:42:51.870Z,11.67
2018-05-09T07:45:17.988Z,10.20
2018-05-09T07:47:44.916Z,9.93
2018-05-09T07:50:11.008Z,13.87
2018-05-09T07:52:37.171Z,10.87
2018-05-09T07:55:03.327Z,10.13
2018-05-09T07:57:29.475Z,13.17
2018-05-09T07:59:56.396Z,11.57
2018-05-09T08:02:23.279Z,11.10
2018-05-09T08:04:49.419Z,11.50
2018-05-09T08:07:15.580Z,12.07
2018-05-09T08:09:41.741Z,12.70
2018-05-09T08:12:07.873Z,11.87
2018-05-09T08:14:34.007Z,10.57
2018-05-09T08:17:00.163Z,11.53
2018-05-09T08:19:26.298Z,11.13
2018-05-09T08:21:52.459Z,10.87
2018-05-09T08:24:18.600Z,10.60
2018-05-09T08:26:44.842Z,9.67
2018-05-09T08:29:11.027Z,9.77
2018-05-09T08:31:37.179Z,9.47
2018-05-09T08:34:03.355Z,9.20
2018-05-09T08:36:29.496Z,9.30
2018-05-09T08:38:56.396Z,14.87
2018-05-09T08:41:22.559Z,9.60
2018-05-09T08:43:48.717Z,9.33
2018-05-09T08:46:14.854Z,9.77
2018-05-09T08:48:41.051Z,10.10
2018-05-09T08:51:07.238Z,9.70
2018-05-09T08:53:33.380Z,10.67
2018-05-09T08:55:59.535Z,9.33
2018-05-09T08:58:25.701Z,8.90
2018-05-09T09:00:51.846Z,9.10
2018-05-09T09:03:18.008Z,9.37
2018-05-09T09:05:44.146Z,8.80
2018-05-09T09:08:10.273Z,9.73
2018-05-09T09:10:36.443Z,13.67
2018-05-09T09:13:02.586Z,8.53
2018-05-09T09:15:28.787Z,8.00
2018-05-09T09:17:54.874Z,8.15
2018-05-09T09:20:21.013Z,7.67
2018-05-09T09:22:47.138Z,10.07
2018-05-09T09:25:13.275Z,10.82
2018-05-09T09:27:39.402Z,10.15
2018-05-09T09:30:05.576Z,6.37
2018-05-09T09:32:31.742Z,6.25
2018-05-09T09:34:57.877Z,7.45
2018-05-09T09:37:24.767Z,8.05
2018-05-09T09:39:50.930Z,6.68
2018-05-09T09:42:17.098Z,6.97
2018-05-09T09:44:43.227Z,6.18
2018-05-09T09:47:09.372Z,8.90
2018-05-09T09:49:35.512Z,6.12
2018-05-09T09:52:01.709Z,11.30
2018-05-09T09:54:28.602Z,6.50
2018-05-09T09:56:54.749Z,6.00
2018-05-09T09:59:20.904Z,7.28
2018-05-09T10:01:47.040Z,8.23
2018-05-09T10:04:13.175Z,7.97
2018-05-09T10:06:39.322Z,5.62
2018-05-09T10:09:05.467Z,6.05
2018-05-09T10:11:31.619Z,9.80
2018-05-09T10:13:57.762Z,6.37
2018-05-09T10:16:23.954Z,7.53
2018-05-09T10:18:50.077Z,7.87
2018-05-09T10:21:16.273Z,7.80
2018-05-09T10:23:42.413Z,6.93
2018-05-09T10:26:08.554Z,7.15
2018-05-09T10:28:34.722Z,7.12
2018-05-09T10:31:01.637Z,8.95
2018-05-09T10:33:27.803Z,6.45
2018-05-09T10:35:54.714Z,6.30
2018-05-09T10:38:20.943Z,6.12
2018-05-09T10:40:47.123Z,6.55
2018-05-09T10:43:14.077Z,7.90
2018-05-09T10:45:40.271Z,6.72
2018-05-09T10:48:06.474Z,6.57
2018-05-09T10:50:32.686Z,5.93
2018-05-09T10:52:58.909Z,8.07
2018-05-09T10:55:25.122Z,5.25
2018-05-09T10:57:51.258Z,2.95
2018-05-09T11:00:17.393Z,8.05
2018-05-09T11:02:43.541Z,5.65
2018-05-09T11:05:10.459Z,4.62
2018-05-09T11:07:36.606Z,5.50
2018-05-09T11:10:02.758Z,4.05
2018-05-09T11:12:28.878Z,4.10
2018-05-09T11:14:55.008Z,3.00
2018-05-09T11:17:21.896Z,3.10
2018-05-09T11:19:48.043Z,6.55
2018-05-09T11:22:14.192Z,7.75
2018-05-09T11:24:40.353Z,4.97
2018-05-09T11:27:06.486Z,7.60
2018-05-09T11:29:32.630Z,3.37
2018-05-09T11:31:58.790Z,4.72
2018-05-09T11:34:25.795Z,4.65
2018-05-09T11:36:51.925Z,3.08
2018-05-09T11:39:18.160Z,3.10
2018-05-09T11:41:44.361Z,5.03
2018-05-09T11:44:10.540Z,3.37
2018-05-09T11:46:36.716Z,4.32
2018-05-09T11:49:02.934Z,4.35
2018-05-09T11:51:29.150Z,5.32
2018-05-09T11:53:55.401Z,5.03
2018-05-09T11:56:21.550Z,4.90
2018-05-09T11:58:47.687Z,4.82
2018-05-09T12:01:13.835Z,7.85
2018-05-09T12:03:39.999Z,4.82
2018-05-09T12:06:06.967Z,7.75
2018-05-09T12:08:33.229Z,4.40
2018-05-09T12:10:59.383Z,3.55
2018-05-09T12:13:25.547Z,6.15
2018-05-09T12:15:51.722Z,3.20
2018-05-09T12:18:17.876Z,4.35
2018-05-09T12:20:44.045Z,5.40
2018-05-09T12:23:11.015Z,9.85
2018-05-09T12:25:37.156Z,3.17
2018-05-09T12:28:03.304Z,3.25
2018-05-09T12:30:29.467Z,7.68
2018-05-09T12:32:55.612Z,4.37
2018-05-09T12:35:22.496Z,5.78
2018-05-09T12:37:48.656Z,4.93
2018-05-09T12:40:14.801Z,4.78
2018-05-09T12:42:40.959Z,3.97
2018-05-09T12:45:07.135Z,4.72
2018-05-09T12:47:33.283Z,5.90
2018-05-09T12:49:59.439Z,3.78
2018-05-09T12:52:26.366Z,3.58
2018-05-09T12:54:52.537Z,4.03
2018-05-09T12:57:18.689Z,5.03
2018-05-09T12:59:44.822Z,4.43
2018-05-09T13:02:11.002Z,4.87
2018-05-09T13:04:37.175Z,3.53
2018-05-09T13:07:04.067Z,3.53
2018-05-09T13:09:30.299Z,4.37
2018-05-09T13:11:56.491Z,5.03
2018-05-09T13:14:23.385Z,3.60
2018-05-09T13:16:49.532Z,6.05
2018-05-09T13:19:15.679Z,3.28
2018-05-09T13:21:41.855Z,5.57
2018-05-09T13:24:08.005Z,3.58
2018-05-09T13:26:34.180Z,5.37
2018-05-09T13:29:00.332Z,6.57
2018-05-09T13:31:27.214Z,5.95
2018-05-09T13:33:53.379Z,5.37
2018-05-09T13:36:19.523Z,6.20
2018-05-09T13:38:45.702Z,4.12
2018-05-09T13:41:11.830Z,5.45
2018-05-09T13:43:37.967Z,4.43
2018-05-09T13:46:04.124Z,3.72
2018-05-09T13:48:30.282Z,4.75
2018-05-09T13:50:56.520Z,4.12
2018-05-09T13:53:22.679Z,6.03
2018-05-09T13:55:48.810Z,3.90
2018-05-09T13:58:14.954Z,6.30
2018-05-09T14:00:41.151Z,7.53
2018-05-09T14:03:07.290Z,4.10
2018-05-09T14:05:33.444Z,5.45
2018-05-09T14:07:59.604Z,15.07
2018-05-09T14:10:25.764Z,32.40
2018-05-09T14:12:51.911Z,34.22
2018-05-09T14:15:18.058Z,30.85
2018-05-09T14:17:44.944Z,30.92
2018-05-09T14:20:11.101Z,30.75
2018-05-09T14:22:37.247Z,31.48
2018-05-09T14:25:03.396Z,31.30
2018-05-09T14:27:29.547Z,28.98
2018-05-09T14:29:55.708Z,28.50
2018-05-09T14:32:21.977Z,28.42
2018-05-09T14:34:48.775Z,30.95
2018-05-09T14:37:15.673Z,31.20
2018-05-09T14:39:41.838Z,31.67
2018-05-09T14:42:08.724Z,30.35
2018-05-09T14:44:34.880Z,32.03
2018-05-09T14:47:01.047Z,30.30
2018-05-09T14:49:27.207Z,28.80
2018-05-09T14:51:53.421Z,29.27
2018-05-09T14:54:19.572Z,29.27
2018-05-09T14:56:45.757Z,32.10
2018-05-09T14:59:11.910Z,27.33
2018-05-09T15:01:38.059Z,31.10
2018-05-09T15:04:04.211Z,28.98
2018-05-09T15:06:31.128Z,31.98
2018-05-09T15:08:58.010Z,31.55
2018-05-09T15:11:24.172Z,32.75
2018-05-09T15:13:50.353Z,32.58
2018-05-09T15:16:16.550Z,30.23
2018-05-09T15:18:43.440Z,33.67
2018-05-09T15:21:09.594Z,35.17
2018-05-09T15:23:35.731Z,31.80
2018-05-09T15:26:01.879Z,32.47
2018-05-09T15:28:28.030Z,31.08
2018-05-09T15:30:54.170Z,31.35
2018-05-09T15:33:20.313Z,35.00
2018-05-09T15:35:46.470Z,33.60
2018-05-09T15:38:12.579Z,30.80
2018-05-09T15:40:38.708Z,34.17
2018-05-09T15:43:04.960Z,32.72
2018-05-09T15:45:31.905Z,32.05
2018-05-09T15:47:58.305Z,29.85
2018-05-09T15:50:24.461Z,34.35
2018-05-09T15:52:50.646Z,31.48
2018-05-09T15:55:16.903Z,31.42
2018-05-09T15:57:43.088Z,30.40
2018-05-09T16:00:09.231Z,32.97
2018-05-09T16:02:35.352Z,34.10
2018-05-09T16:05:02.266Z,30.55
2018-05-09T16:07:29.167Z,28.55
2018-05-09T16:09:56.203Z,32.00
2018-05-09T16:12:22.362Z,32.33
2018-05-09T16:14:48.516Z,32.15
2018-05-09T16:17:14.703Z,34.13
2018-05-09T16:19:41.602Z,29.23
2018-05-09T16:22:07.759Z,34.65
2018-05-09T16:24:33.918Z,28.67
2018-05-09T16:27:00.071Z,32.10
2018-05-09T16:29:26.221Z,29.40
2018-05-09T16:31:52.399Z,26.62
2018-05-09T16:34:18.535Z,31.75
2018-05-09T16:36:44.698Z,28.60
2018-05-09T16:39:10.885Z,24.70
2018-05-09T16:41:37.029Z,24.12
2018-05-09T16:44:03.247Z,23.95
2018-05-09T16:46:29.439Z,21.85
2018-05-09T16:48:55.649Z,26.25
2018-05-09T16:51:21.824Z,21.00
2018-05-09T16:53:48.774Z,23.58
2018-05-09T16:56:14.946Z,19.15
2018-05-09T16:58:41.152Z,19.98
2018-05-09T17:01:07.318Z,19.37
2018-05-09T17:03:33.512Z,22.30
2018-05-09T17:05:59.674Z,18.37
2018-05-09T17:08:25.951Z,19.87
2018-05-09T17:10:52.095Z,14.50
2018-05-09T17:13:18.216Z,17.10
2018-05-09T17:15:44.362Z,14.57
2018-05-09T17:18:10.471Z,16.57
2018-05-09T17:20:36.640Z,15.80
2018-05-09T17:23:03.548Z,14.03
2018-05-09T17:25:29.727Z,14.07
2018-05-09T17:27:55.911Z,18.60
2018-05-09T17:30:22.144Z,16.20
2018-05-09T17:32:48.227Z,16.80
2018-05-09T17:35:14.363Z,18.53
2018-05-09T17:37:40.512Z,17.07
2018-05-09T17:40:06.663Z,18.20
2018-05-09T17:42:32.814Z,18.17
2018-05-09T17:44:58.960Z,19.20
2018-05-09T17:47:25.951Z,16.57
2018-05-09T17:49:52.070Z,16.93
2018-05-09T17:52:18.951Z,17.37
2018-05-09T17:54:45.943Z,15.83
2018-05-09T17:57:12.111Z,16.73
2018-05-09T17:59:38.264Z,19.77
2018-05-09T18:02:04.418Z,20.70
2018-05-09T18:04:30.543Z,18.43
2018-05-09T18:06:56.723Z,20.83
2018-05-09T18:09:22.884Z,20.60
2018-05-09T18:11:49.011Z,23.03
2018-05-09T18:14:15.203Z,20.97
2018-05-09T18:16:41.391Z,20.53
2018-05-09T18:19:07.538Z,23.90
2018-05-09T18:21:33.679Z,21.63
2018-05-09T18:23:59.774Z,22.73
2018-05-09T18:26:25.923Z,22.03
2018-05-09T18:28:52.068Z,21.90
2018-05-09T18:31:18.216Z,20.07
2018-05-09T18:33:45.851Z,22.43
2018-05-09T18:36:11.978Z,21.13
2018-05-09T18:38:38.155Z,20.07
2018-05-09T18:41:04.313Z,21.63
2018-05-09T18:43:30.436Z,20.93
2018-05-09T18:45:57.321Z,20.57
2018-05-09T18:48:23.459Z,23.07
2018-05-09T18:50:49.655Z,22.03
2018-05-09T18:53:16.567Z,23.50
2018-05-09T18:55:42.706Z,24.07
2018-05-09T18:58:08.866Z,22.50
2018-05-09T19:00:35.765Z,21.30
2018-05-09T19:03:01.914Z,22.83
2018-05-09T19:05:28.071Z,24.40
2018-05-09T19:07:54.222Z,23.77
2018-05-09T19:10:21.150Z,23.93
2018-05-09T19:12:48.053Z,25.53
2018-05-09T19:15:14.182Z,24.33
2018-05-09T19:17:40.693Z,24.07
2018-05-09T19:20:06.873Z,26.47
2018-05-09T19:22:33.044Z,25.90
2018-05-09T19:24:59.934Z,27.63
2018-05-09T19:27:26.112Z,27.93
2018-05-09T19:29:52.275Z,27.20
2018-05-09T19:32:18.425Z,26.93
2018-05-09T19:34:44.544Z,26.73
2018-05-09T19:37:10.727Z,27.47
2018-05-09T19:39:36.921Z,27.33
2018-05-09T19:42:03.821Z,27.57
2018-05-09T19:44:29.919Z,29.97
2018-05-09T19:46:56.030Z,31.47
2018-05-09T19:49:22.902Z,31.70
2018-05-09T19:51:49.013Z,30.93
2018-05-09T19:54:15.129Z,31.73
2018-05-09T19:56:41.253Z,31.80
2018-05-09T19:59:07.358Z,33.20
2018-05-09T20:01:33.459Z,32.17
2018-05-09T20:03:59.591Z,35.17
2018-05-09T20:06:25.723Z,32.50
2018-05-09T20:08:51.855Z,34.37
2018-05-09T20:11:18.058Z,32.53
2018-05-09T20:13:44.220Z,34.67
2018-05-09T20:16:10.387Z,32.93
2018-05-09T20:18:36.524Z,32.53
2018-05-09T20:21:02.660Z,32.63
2018-05-09T20:23:29.639Z,32.83
2018-05-09T20:25:55.733Z,32.23
2018-05-09T20:28:21.858Z,33.13
2018-05-09T20:30:54.008Z,32.57
2018-05-09T20:33:20.164Z,32.27
2018-05-09T20:35:46.299Z,32.73
2018-05-09T20:38:12.433Z,32.43
2018-05-09T20:40:38.546Z,32.13
2018-05-09T20:43:04.677Z,31.33
2018-05-09T20:45:30.848Z,32.03
2018-05-09T20:47:56.982Z,31.97
2018-05-09T20:50:23.102Z,34.23
2018-05-09T20:52:49.220Z,31.83
2018-05-09T20:55:26.510Z,32.37
2018-05-09T20:57:52.621Z,34.03
2018-05-09T21:00:18.806Z,35.47
2018-05-09T21:02:44.943Z,36.30
2018-05-09T21:05:11.092Z,35.23
2018-05-09T21:07:54.642Z,36.73
2018-05-09T21:10:20.771Z,35.97
2018-05-09T21:12:47.002Z,38.27
2018-05-09T21:15:13.814Z,38.93
2018-05-09T21:17:39.945Z,37.47
2018-05-09T21:20:06.914Z,37.93
2018-05-09T21:22:32.984Z,37.70
2018-05-09T21:24:59.107Z,37.90
2018-05-09T21:27:25.305Z,37.77
2018-05-09T21:29:51.442Z,37.20
2018-05-09T21:32:17.577Z,38.70
2018-05-09T21:34:43.702Z,37.07
2018-05-09T21:37:09.831Z,35.57
2018-05-09T21:39:35.955Z,36.50
2018-05-09T21:42:02.085Z,35.33
2018-05-09T21:44:28.206Z,35.03
2018-05-09T21:46:54.347Z,34.83
2018-05-09T21:49:20.459Z,33.67
2018-05-09T21:51:46.598Z,32.80
2018-05-09T21:54:13.468Z,31.50
2018-05-09T21:56:39.595Z,29.50
2018-05-09T21:59:05.782Z,29.53
2018-05-09T22:01:31.908Z,29.03
2018-05-09T22:03:58.046Z,29.10
2018-05-09T22:06:24.936Z,27.37
2018-05-09T22:08:51.082Z,26.07
2018-05-09T22:11:17.219Z,26.97
2018-05-09T22:13:43.332Z,28.00
2018-05-09T22:16:09.505Z,26.30
2018-05-09T22:18:35.656Z,26.47
2018-05-09T22:21:01.795Z,27.07
2018-05-09T22:23:28.691Z,26.53
2018-05-09T22:25:54.816Z,26.03
2018-05-09T22:28:20.939Z,28.43
2018-05-09T22:30:47.811Z,26.67
2018-05-09T22:33:13.926Z,26.53
2018-05-09T22:35:40.095Z,26.20
2018-05-09T22:38:06.267Z,26.60
2018-05-09T22:40:33.145Z,26.23
2018-05-09T22:42:59.270Z,25.23
2018-05-09T22:48:18.171Z,23.57
2018-05-09T22:50:44.304Z,25.10
2018-05-09T22:53:10.437Z,21.93
2018-05-09T22:55:36.623Z,22.77
2018-05-09T22:58:02.734Z,21.67
2018-05-09T23:00:28.889Z,22.53
2018-05-09T23:02:54.975Z,22.13
2018-05-09T23:05:21.144Z,22.83
2018-05-09T23:07:47.308Z,21.20
2018-05-09T23:10:13.495Z,20.43
2018-05-09T23:12:39.642Z,21.10
2018-05-09T23:15:05.852Z,21.53
2018-05-09T23:17:32.813Z,21.40
2018-05-09T23:19:59.667Z,20.23
2018-05-09T23:22:26.569Z,21.33
2018-05-09T23:24:52.794Z,21.77
2018-05-09T23:27:19.655Z,23.83
2018-05-09T23:32:38.551Z,23.67
2018-05-09T23:35:04.747Z,23.87
2018-05-09T23:37:30.909Z,24.27
2018-05-09T23:39:57.053Z,22.47
2018-05-09T23:42:23.201Z,23.37
2018-05-09T23:44:49.371Z,23.33
2018-05-09T23:47:15.522Z,24.00
2018-05-09T23:49:41.738Z,25.00
2018-05-09T23:52:09.330Z,24.70
2018-05-09T23:54:35.478Z,25.20
2018-05-09T23:57:01.644Z,25.87
2018-05-09T23:59:27.803Z,26.40
